Flight Track Log - Related Links

Times and Time Zones

All times are in EDT time to prevent confusion due to time zone crossing. See the N7890Y flight status page for this flight to view local times or setup timezone preferences in your user account.

Time Position Orientation Groundspeed Altitude Reporting Facility
EDT Latitude Longitude Course Direction KTS MPH feet Rate Location/Type
Sun 12:11:00 PM 44.4463 -73.4905 242° Southwest  Level Estimated
Sun 12:12:00 PM 44.4173 -73.5297 224° Southwest  Level FlightAware Approximate
Sun 12:13:00 PM 44.3883 -73.5690 224° Southwest  Level FlightAware Approximate
Sun 12:14:00 PM 44.3592 -73.6082 224° Southwest  Level FlightAware Approximate
Sun 12:15:00 PM 44.3552 -73.6643 240° Southwest  Level Estimated
Sun 12:15:16 PM 44.2981 -73.4931 232° Southwest 106 122 7,600  Level Boston Center
Sun 12:16:00 PM 44.3305 -73.7089 232° Southwest  Level FlightAware Approximate
Sun 12:16:16 PM 44.2853 -73.5275 243° Southwest 111 128 8,000  Level Boston Center
Sun 12:17:00 PM 44.3058 -73.7534 232° Southwest  Level FlightAware Approximate
Sun 12:17:16 PM 44.2661 -73.5708 238° Southwest 128 147 8,100  Level Boston Center
Sun 12:18:00 PM 44.2810 -73.7980 232° Southwest  Level FlightAware Approximate
Sun 12:18:17 PM 44.2533 -73.6139 248° West 142 163 8,000  Level Boston Center
Sun 12:19:00 PM 44.2563 -73.8425 232° Southwest  Level FlightAware Approximate
Sun 12:19:17 PM 44.2300 -73.6569 233° Southwest 142 163 7,900  Level Boston Center
Sun 12:20:00 PM 44.2315 -73.8869 232° Southwest  Level FlightAware Approximate
Sun 12:20:15 PM 44.2086 -73.7058 239° Southwest 148 170 8,000  Level Boston Center
Sun 12:21:15 PM 44.1872 -73.7517 237° Southwest 148 170 7,900 -50 Descending Boston Center
Sun 12:22:16 PM 44.1700 -73.7975 242° Southwest 142 163 7,900  Level Boston Center
Sun 12:23:16 PM 44.1528 -73.8492 245° Southwest 142 163 7,900  Level Boston Center
Sun 12:24:17 PM 44.1333 -73.8950 239° Southwest 142 163 7,900 50 Level Boston Center
Sun 12:25:17 PM 44.1119 -73.9494 241° Southwest 137 158 8,000 51 Climbing Boston Center
Sun 12:26:15 PM 44.0944 -73.9953 242° Southwest 137 158 8,000  Level Boston Center
Sun 12:27:16 PM 44.0794 -74.0383 244° Southwest 132 152 8,000  Level Boston Center
Sun 12:28:16 PM 44.0600 -74.0869 241° Southwest 144 166 8,000  Level Boston Center
Sun 12:29:17 PM 44.0383 -74.1325 237° Southwest 144 166 8,000  Level Boston Center
Sun 12:30:17 PM 44.0189 -74.1781 239° Southwest 144 166 8,000  Level Boston Center
Sun 12:31:18 PM 43.9994 -74.2267 241° Southwest 139 160 8,000  Level Boston Center
Sun 12:32:15 PM 43.9800 -74.2722 239° Southwest 139 160 8,000  Level Boston Center
Sun 12:33:16 PM 43.9625 -74.3178 242° Southwest 139 160 8,000  Level Boston Center
Sun 12:34:16 PM 43.9453 -74.3633 242° Southwest 139 160 8,000  Level Boston Center
Sun 12:35:17 PM 43.9256 -74.4117 240° Southwest 139 160 8,000  Level Boston Center
Sun 12:36:17 PM 43.9061 -74.4544 238° Southwest 139 160 8,000  Level Boston Center
Sun 12:37:16 PM 43.8947 -74.5058 253° West 139 160 8,000  Level Boston Center
Sun 12:38:17 PM 43.8897 -74.5575 262° West 134 154 8,000  Level Boston Center
Sun 12:39:15 PM 43.8867 -74.6122 266° West 134 154 8,000  Level Boston Center
Sun 12:40:16 PM 43.8814 -74.6608 261° West 140 161 8,000  Level Boston Center
Sun 12:40:59 PM 43.8892 -74.6986 286° West 139 160 8,000  Level Boston Center
Sun 12:41:05 PM 43.8889 -74.7044 266° West 139 160 8,000  Level Boston Center
Sun 12:41:17 PM 43.8742 -74.7153 208° Southwest 140 161 8,000  Level Boston Center
Sun 12:42:06 PM 43.8817 -74.7589 283° West 139 160 8,000  Level Boston Center
Sun 12:42:15 PM 43.8689 -74.7669 204° Southwest 140 161 8,000  Level Boston Center
Sun 12:43:07 PM 43.8764 -74.8106 283° West 138 159 8,000  Level Boston Center
Sun 12:43:16 PM 43.8658 -74.8217 217° Southwest 140 161 8,000  Level Boston Center
Sun 12:44:07 PM 43.8711 -74.8681 279° West 139 160 8,000  Level Boston Center
Sun 12:44:17 PM 43.8606 -74.8733 200° South 140 161 8,000  Level Boston Center
Sun 12:45:08 PM 43.8636 -74.9167 276° West 141 162 8,000  Level Boston Center
Sun 12:45:17 PM 43.8550 -74.9278 223° Southwest 140 161 8,000  Level Boston Center
Sun 12:46:08 PM 43.8583 -74.9711 276° West 141 162 8,000  Level Boston Center
Sun 12:46:18 PM 43.8478 -74.9822 217° Southwest 140 161 8,000  Level Boston Center
Sun 12:47:09 PM 43.8508 -75.0283 275° West 140 161 8,000  Level Boston Center
Sun 12:47:15 PM 43.8444 -75.0339 212° Southwest 140 161 8,000  Level Boston Center
Sun 12:48:15 PM 43.8369 -75.0853 259° West 140 161 8,000 -52 Level Boston Center
Sun 12:49:10 PM 43.8400 -75.1372 275° West 142 163 7,900 -98 Descending Boston Center
Sun 12:49:16 PM 43.8336 -75.1400 197° South 140 161 7,900 95 Level Boston Center
Sun 12:50:13 PM 43.8303 -75.1886 265° West 140 161 8,000 100 Climbing Boston Center
Sun 12:50:16 PM 43.8281 -75.1944 242° Southwest 140 161 8,000 -100 Level Boston Center
Sun 12:51:13 PM 43.8250 -75.2431 265° West 141 162 7,900 -100 Descending Boston Center
Sun 12:51:16 PM 43.8206 -75.2486 222° Southwest 146 168 7,900  Level Boston Center
Sun 12:52:14 PM 43.8194 -75.2947 268° West 141 162 7,900  Level Boston Center
Sun 12:52:17 PM 43.8153 -75.3003 224° Southwest 146 168 7,900 95 Level Boston Center
Sun 12:53:17 PM 43.8117 -75.3547 265° West 141 162 8,000 95 Climbing Boston Center
Sun 12:53:20 PM 43.8136 -75.3578 311° West 141 162 8,000  Level Boston Center
Sun 12:54:15 PM 43.8042 -75.4092 256° West 141 162 8,000 98 Level Boston Center
Sun 12:54:21 PM 43.8042 -75.4061 90° East 140 161 8,100 98 Climbing Boston Center
Sun 12:55:16 PM 43.7986 -75.4606 262° West 141 162 8,100  Level Boston Center
Sun 12:55:22 PM 43.7986 -75.4633 270° West 140 161 8,100  Level Boston Center
Sun 12:56:22 PM 43.7931 -75.5150 262° West 141 162 8,100  Level Boston Center
Sun 12:57:23 PM 43.7872 -75.5694 262° West 143 165 8,100 53 Level Boston Center
Sun 12:58:16 PM 43.7797 -75.6206 259° West 144 166 8,200 53 Climbing Boston Center
Sun 12:59:17 PM 43.7739 -75.6781 262° West 143 165 8,200  Level Boston Center
Sun 01:00:17 PM 43.7683 -75.7294 262° West 144 166 8,200  Level Boston Center
Sun 01:01:19 PM 43.7603 -75.7836 258° West 143 165 8,200 -49 Level Boston Center
Sun 01:02:19 PM 43.7525 -75.8406 259° West 144 166 8,100 -50 Descending Boston Center
Sun 01:03:20 PM 43.7467 -75.8950 262° West 142 163 8,100  Level Boston Center
Sun 01:04:21 PM 43.7411 -75.9436 261° West 141 162 8,100  Level Boston Center
Sun 01:05:21 PM 43.7331 -76.0006 259° West 141 162 8,100 -50 Level Boston Center
Sun 01:06:22 PM 43.7269 -76.0578 262° West 143 165 8,000 -49 Descending Boston Center
Sun 01:07:24 PM 43.7211 -76.1147 262° West 144 166 8,000  Level Boston Center
Sun 01:08:24 PM 43.7131 -76.1661 258° West 140 161 8,000  Level Boston Center
Sun 01:09:31 PM 43.7050 -76.2231 259° West 143 165 8,000  Level Boston Center
Sun 01:10:31 PM 43.6969 -76.2800 259° West 141 162 8,000  Level Boston Center
Sun 01:11:07 PM 43.7017 -76.3206 279° West 142 163 8,000  Level Boston Center
Sun 01:11:32 PM 43.6989 -76.3433 260° West 143 165 8,000  Level Boston Center
Sun 01:12:30 PM 43.6931 -76.3944 261° West 141 162 8,000  Level Boston Center
Sun 01:13:31 PM 43.6869 -76.4458 261° West 138 159 8,000  Level Boston Center
Sun 01:15:49 PM 43.6731 -76.5625 261° West 138 159 8,000  Level Cleveland Center
Sun 01:16:51 PM 43.6664 -76.6139 260° West 137 158 8,000  Level Cleveland Center
Sun 01:17:53 PM 43.6597 -76.6700 261° West 139 160 8,000  Level Cleveland Center
Sun 01:18:55 PM 43.6536 -76.7233 261° West 140 161 8,000  Level Cleveland Center
Sun 01:19:58 PM 43.6472 -76.7753 260° West 139 160 8,000  Level Cleveland Center
Sun 01:21:00 PM 43.6408 -76.8278 260° West 139 160 8,000  Level Cleveland Center
Sun 01:22:02 PM 43.6336 -76.8903 261° West 138 159 8,000 48 Level Cleveland Center
Sun 01:23:04 PM 43.6269 -76.9442 260° West 141 162 8,100  Climbing Cleveland Center
Sun 01:24:06 PM 43.6206 -76.9969 261° West 141 162 8,000 -48 Descending Cleveland Center
Sun 01:25:08 PM 43.6136 -77.0503 260° West 141 162 8,000  Level Cleveland Center
Sun 01:26:10 PM 43.6078 -77.1028 261° West 140 161 8,000  Level Cleveland Center
Sun 01:27:12 PM 43.6008 -77.1558 260° West 140 161 8,000  Level Cleveland Center
Sun 01:28:14 PM 43.5931 -77.2183 260° West 139 160 8,000 -48 Level Cleveland Center
Sun 01:29:16 PM 43.5872 -77.2697 261° West 138 159 7,900 -48 Descending Cleveland Center
Sun 01:30:18 PM 43.5808 -77.3222 260° West 138 159 7,900 48 Level Cleveland Center
Sun 01:31:20 PM 43.5742 -77.3744 260° West 139 160 8,000 48 Climbing Cleveland Center
Sun 01:32:23 PM 43.5672 -77.4261 260° West 137 158 8,000  Level Cleveland Center
Sun 01:33:25 PM 43.5606 -77.4789 260° West 140 161 8,000  Level Cleveland Center
Sun 01:34:27 PM 43.5533 -77.5419 261° West 139 160 8,000  Level Cleveland Center
Sun 01:35:29 PM 43.5469 -77.5931 260° West 137 158 8,000  Level Cleveland Center
Sun 01:36:31 PM 43.5397 -77.6461 259° West 141 162 8,000 -48 Level Cleveland Center
Sun 01:37:33 PM 43.5331 -77.6997 260° West 144 166 7,900 -48 Descending Cleveland Center
Sun 01:38:35 PM 43.5267 -77.7522 260° West 139 160 7,900  Level Cleveland Center
Sun 01:39:37 PM 43.5175 -77.8164 259° West 144 166 7,900 48 Level Cleveland Center
Sun 01:40:39 PM 43.5114 -77.8692 261° West 140 161 8,000  Climbing Cleveland Center
Sun 01:41:41 PM 43.5036 -77.9228 259° West 143 165 7,900 -48 Descending Cleveland Center
Sun 01:42:43 PM 43.4975 -77.9750 261° West 139 160 7,900  Level Cleveland Center
Sun 01:43:45 PM 43.4906 -78.0275 260° West 140 161 7,900 48 Level Cleveland Center
Sun 01:44:47 PM 43.4839 -78.0797 260° West 139 160 8,000 48 Climbing Cleveland Center
Sun 01:45:50 PM 43.4750 -78.1436 259° West 139 160 8,000  Level Cleveland Center
Sun 01:46:52 PM 43.4689 -78.1947 261° West 140 161 8,000  Level Cleveland Center
Sun 01:47:54 PM 43.4614 -78.2492 259° West 140 161 8,000 48 Level Cleveland Center
Sun 01:48:56 PM 43.4544 -78.3058 260° West 142 163 8,100 48 Climbing Cleveland Center
Sun 01:49:58 PM 43.4464 -78.3622 259° West 145 167 8,100  Level Cleveland Center
Sun 01:51:00 PM 43.4389 -78.4203 260° West 147 169 8,100  Level Cleveland Center
Sun 01:52:02 PM 43.4306 -78.4775 259° West 149 171 8,100 -48 Level Cleveland Center
Sun 01:53:04 PM 43.4228 -78.5297 258° West 145 167 8,000 -48 Descending Cleveland Center
Sun 01:54:06 PM 43.4172 -78.5831 262° West 143 165 8,000  Level Cleveland Center
Sun 01:55:08 PM 43.4086 -78.6386 258° West 147 169 8,000  Level Cleveland Center
Sun 01:56:10 PM 43.4006 -78.6908 258° West 144 166 8,000  Level Cleveland Center
Sun 01:57:12 PM 43.3939 -78.7433 260° West 141 162 8,000 -49 Level Cleveland Center
Sun 01:58:13 PM 43.3833 -78.7833 250° West 140 161 7,900 -50 Descending Toronto Center
Sun 01:59:13 PM 43.3667 -78.8333 245° Southwest 140 161 7,900 -50 Level Toronto Center
Sun 02:00:13 PM 43.3667 -78.9000 270° West 140 161 7,800  Descending Toronto Center
Sun 02:01:13 PM 43.3500 -78.9500 245° Southwest 140 161 7,900 50 Climbing Toronto Center
Sun 02:02:13 PM 43.3500 -78.9833 270° West 150 173 7,900  Level Toronto Center
Sun 02:03:13 PM 43.3500 -79.0667 270° West 150 173 7,900  Level Toronto Center
Sun 02:04:13 PM 43.3333 -79.1000 236° Southwest 140 161 7,900  Level Toronto Center
Sun 02:05:13 PM 43.3333 -79.1500 270° West 140 161 7,900  Level Toronto Center
Sun 02:06:13 PM 43.3167 -79.2167 251° West 140 161 7,900 50 Level Toronto Center
Sun 02:07:13 PM 43.3167 -79.2667 270° West 140 161 8,000 50 Climbing Toronto Center
Sun 02:08:13 PM 43.3000 -79.3333 251° West 140 161 8,000  Level Toronto Center
Sun 02:09:13 PM 43.3000 -79.3833 270° West 140 161 8,000  Level Toronto Center
Sun 02:10:13 PM 43.2833 -79.4333 245° Southwest 140 161 8,000  Level Toronto Center
Sun 02:11:13 PM 43.2833 -79.5000 270° West 150 173 8,000  Level Toronto Center
Sun 02:12:13 PM 43.2667 -79.5333 236° Southwest 140 161 8,000  Level Toronto Center
Sun 02:13:13 PM 43.2667 -79.5833 270° West 150 173 8,000  Level Toronto Center
Sun 02:14:13 PM 43.2500 -79.6500 251° West 150 173 8,000  Level Toronto Center
Sun 02:15:13 PM 43.2500 -79.7000 270° West 140 161 8,000  Level Toronto Center
Sun 02:16:13 PM 43.2333 -79.7667 251° West 140 161 8,000  Level Toronto Center
Sun 02:17:13 PM 43.2333 -79.8167 270° West 140 161 8,000 -50 Level Toronto Center
Sun 02:18:13 PM 43.2167 -79.8667 245° Southwest 140 161 7,900 -50 Descending Toronto Center
Sun 02:19:13 PM 43.2167 -79.9000 270° West 140 161 7,900  Level Toronto Center
Sun 02:20:13 PM 43.2000 -79.9833 255° West 140 161 7,900  Level Toronto Center
Sun 02:21:13 PM 43.2000 -80.0167 270° West 140 161 7,900 -50 Level Toronto Center
Sun 02:22:13 PM 43.2000 -80.0833 270° West 140 161 7,800  Descending Toronto Center
Sun 02:23:13 PM 43.2000 -80.1333 270° West 140 161 7,900 100 Climbing Toronto Center
Sun 02:24:13 PM 43.2000 -80.1833 270° West 140 161 8,000 50 Climbing Toronto Center
Sun 02:25:13 PM 43.1833 -80.2500 251° West 140 161 8,000  Level Toronto Center
Sun 02:26:13 PM 43.1833 -80.3000 270° West 140 161 8,000 -50 Level Toronto Center
Sun 02:27:13 PM 43.1833 -80.3500 270° West 140 161 7,900  Descending Toronto Center
Sun 02:28:13 PM 43.1833 -80.4167 270° West 140 161 8,000  Climbing Toronto Center
Sun 02:29:13 PM 43.1833 -80.4500 270° West 140 161 7,900  Descending Toronto Center
Sun 02:30:13 PM 43.1833 -80.5000 270° West 140 161 8,000 50 Climbing Toronto Center
Sun 02:31:13 PM 43.1833 -80.5667 270° West 140 161 8,000 -50 Level Toronto Center
Sun 02:32:13 PM 43.1833 -80.6167 270° West 140 161 7,900 -250 Descending Toronto Center
Sun 02:33:13 PM 43.1833 -80.6833 270° West 150 173 7,500 -350 Descending Toronto Center
Sun 02:34:13 PM 43.1833 -80.7333 270° West 150 173 7,200 -250 Descending Toronto Center
Sun 02:35:13 PM 43.1667 -80.8000 251° West 160 184 7,000 -150 Descending Toronto Center
Sun 02:36:13 PM 43.1500 -80.8500 245° Southwest 160 184 6,900 -100 Descending Toronto Center
Sun 02:37:13 PM 43.1500 -80.9167 270° West 150 173 6,800 -250 Descending Toronto Center
Sun 02:38:13 PM 43.1500 -80.9667 270° West 160 184 6,400 -350 Descending Toronto Center
Sun 02:39:13 PM 43.1500 -81.0333 270° West 160 184 6,100 -150 Descending Toronto Center
Sun 02:40:13 PM 43.1500 -81.1000 270° West 150 173 6,100 -100 Level Toronto Center
Sun 02:41:13 PM 43.1500 -81.1333 270° West 150 173 5,900 -100 Descending Toronto Center
Sun 02:42:13 PM 43.1500 -81.2167 270° West 150 173 5,900  Level Toronto Center
Sun 02:43:13 PM 43.1500 -81.2500 270° West 140 161 5,900  Level Toronto Center
Sun 02:44:13 PM 43.1500 -81.3000 270° West 140 161 5,900  Level Toronto Center
Sun 02:45:13 PM 43.1500 -81.3667 270° West 140 161 5,900  Level Toronto Center
Sun 02:46:13 PM 43.1333 -81.4167 245° Southwest 140 161 5,900  Level Toronto Center
Sun 02:47:13 PM 43.1333 -81.4667 270° West 140 161 5,900  Level Toronto Center
Sun 02:48:13 PM 43.1333 -81.5333 270° West 140 161 5,900  Level Toronto Center
Sun 02:49:13 PM 43.1333 -81.5667 270° West 140 161 5,900  Level Toronto Center
Sun 02:50:13 PM 43.1333 -81.6167 270° West 140 161 5,900 50 Level Toronto Center
Sun 02:51:13 PM 43.1333 -81.6833 270° West 140 161 6,000  Climbing Toronto Center
Sun 02:52:13 PM 43.1333 -81.7333 270° West 140 161 5,900 -50 Descending Toronto Center
Sun 02:53:13 PM 43.1333 -81.7833 270° West 140 161 5,900  Level Toronto Center
Sun 02:54:13 PM 43.1333 -81.8500 270° West 140 161 5,900 50 Level Toronto Center
Sun 02:55:13 PM 43.1333 -81.9000 270° West 140 161 6,000  Climbing Toronto Center
Sun 02:56:13 PM 43.1167 -81.9667 251° West 140 161 5,900  Descending Toronto Center
Sun 02:57:50 PM 43.1233 -82.0531 276° West 144 166 6,000 38 Climbing Cleveland Center
Sun 02:58:52 PM 43.1200 -82.1075 265° West 144 166 6,000  Level Cleveland Center
Sun 02:59:55 PM 43.1172 -82.1600 266° West 142 163 6,000 -48 Level Cleveland Center
Sun 03:00:57 PM 43.1142 -82.2131 266° West 140 161 5,900 -48 Descending Cleveland Center
Sun 03:01:59 PM 43.1122 -82.2639 267° West 136 157 5,900  Level Cleveland Center
Sun 03:03:01 PM 43.1100 -82.3178 267° West 140 161 5,900  Level Cleveland Center
Sun 03:04:03 PM 43.1061 -82.3808 265° West 140 161 5,900  Level Cleveland Center
Sun 03:05:05 PM 43.1036 -82.4319 266° West 136 157 5,900  Level Cleveland Center
Sun 03:06:07 PM 43.1008 -82.4825 266° West 134 154 5,900  Level Cleveland Center
Sun 03:07:09 PM 43.0992 -82.5397 268° West 141 162 5,900 -48 Level Cleveland Center
Sun 03:08:11 PM 43.0961 -82.5950 266° West 138 159 5,800  Descending Cleveland Center
Sun 03:09:13 PM 43.0944 -82.6483 268° West 142 163 5,900 48 Climbing Cleveland Center
Sun 03:10:15 PM 43.0906 -82.7033 264° West 136 157 5,900 48 Level Cleveland Center
Sun 03:11:17 PM 43.0883 -82.7544 267° West 134 154 6,000 48 Climbing Cleveland Center
Sun 03:12:20 PM 43.0853 -82.8111 266° West 140 161 6,000  Level Cleveland Center
Sun 03:13:22 PM 43.0822 -82.8689 266° West 142 163 6,000 -48 Level Cleveland Center
Sun 03:14:24 PM 43.0797 -82.9200 266° West 138 159 5,900 -48 Descending Cleveland Center
Sun 03:15:26 PM 43.0772 -82.9778 267° West 141 162 5,900  Level Cleveland Center
Sun 03:16:28 PM 43.0722 -83.0294 262° West 141 162 5,900 48 Level Cleveland Center
Sun 03:17:30 PM 43.0681 -83.0831 264° West 133 153 6,000 48 Climbing Cleveland Center
Sun 03:18:32 PM 43.0694 -83.1347 272° West 137 158 6,000  Level Cleveland Center
Sun 03:19:34 PM 43.0636 -83.1881 262° West 133 153 6,000  Level Cleveland Center
Sun 03:20:36 PM 43.0608 -83.2383 266° West 134 154 6,000 -48 Level Cleveland Center
Sun 03:21:38 PM 43.0578 -83.2947 266° West 137 158 5,900  Descending Cleveland Center
Sun 03:22:40 PM 43.0544 -83.3469 265° West 139 160 6,000 48 Climbing Cleveland Center
Sun 03:23:42 PM 43.0514 -83.4017 266° West 136 157 6,000  Level Cleveland Center
Sun 03:24:44 PM 43.0481 -83.4525 265° West 137 158 6,000 -48 Level Cleveland Center
Sun 03:25:47 PM 43.0444 -83.5075 265° West 136 157 5,900 -336 Descending Cleveland Center
Sun 03:26:49 PM 43.0403 -83.5689 265° West 150 173 5,300 -435 Descending Cleveland Center
Sun 03:27:51 PM 43.0364 -83.6264 265° West 154 177 5,000 -339 Descending Cleveland Center
Sun 03:28:53 PM 43.0319 -83.6869 264° West 150 173 4,600 -435 Descending Cleveland Center
Sun 03:29:55 PM 43.0283 -83.7425 265° West 151 174 4,100 -339 Descending Cleveland Center
Sun 03:30:57 PM 43.0247 -83.8017 265° West 148 170 3,900 -97 Descending Cleveland Center
Sun 03:31:59 PM 43.0214 -83.8592 265° West 143 165 3,900  Level Cleveland Center
Sun 03:33:01 PM 43.0178 -83.9128 265° West 143 165 3,900 -48 Level Cleveland Center
Sun 03:34:03 PM 43.0142 -83.9700 265° West 142 163 3,800 -48 Descending Cleveland Center
Sun 03:35:05 PM 43.0108 -84.0214 265° West 138 159 3,800 48 Level Cleveland Center
Sun 03:36:07 PM 43.0072 -84.0756 265° West 134 154 3,900 48 Climbing Cleveland Center
Sun 03:37:10 PM 43.0039 -84.1253 265° West 133 153 3,900  Level Cleveland Center
Sun 03:38:12 PM 43.0003 -84.1778 265° West 130 150 3,900  Level Cleveland Center
Sun 03:39:14 PM 42.9969 -84.2281 265° West 134 154 3,900  Level Cleveland Center
Sun 03:40:16 PM 42.9931 -84.2817 264° West 132 152 3,900 -48 Level Cleveland Center
Sun 03:41:18 PM 42.9892 -84.3342 264° West 131 151 3,800 48 Descending Cleveland Center
Sun 03:42:20 PM 42.9856 -84.3839 264° West 134 154 4,000 61 Climbing Cleveland Center
Sun 03:42:56 PM 42.9839 -84.4114 265° West 131 151 3,900 -61 Descending Chicago Center
Sun 03:43:58 PM 42.9811 -84.4606 266° West 131 151 3,900 -48 Level Chicago Center
Sun 03:45:00 PM 42.9781 -84.5111 265° West 132 152 3,800 -48 Descending Chicago Center
Sun 03:46:02 PM 42.9731 -84.5611 262° West 133 153 3,800 -144 Level Chicago Center
Sun 03:47:05 PM 42.9644 -84.6217 259° West 134 154 3,500 -384 Descending Chicago Center
Sun 03:48:07 PM 42.9556 -84.6758 257° West 139 160 3,000 -194 Descending Chicago Center
Sun 03:49:09 PM 42.9486 -84.7281 260° West 142 163 3,100 97 Climbing Chicago Center
Sun 03:50:11 PM 42.9431 -84.7728 260° West 131 151 3,200 48 Climbing Chicago Center
Sun 03:51:13 PM 42.9364 -84.8172 258° West 125 144 3,200 -48 Level Chicago Center
Sun 03:52:15 PM 42.9383 -84.8617 273° West 121 139 3,100 -290 Descending Chicago Center
Sun 03:53:17 PM 42.9386 -84.9167 270° West 121 139 2,600 -435 Descending Chicago Center
Sun 03:54:19 PM 42.9375 -84.9633 268° West 122 140 2,200 -435 Descending Chicago Center
Sun 03:55:21 PM 42.9367 -85.0006 268° West 111 128 1,700 -339 Descending Chicago Center
Sun 03:56:23 PM 42.9361 -85.0322 269° West 105 121 1,500 -194 Descending Chicago Center
Sun 03:58:00 PM 42.9333 -85.0500 270° West  Level FlightAware Approximate
Sun 04:05:00 PM 42.9379 -85.0606 270° West  Level Estimated
Sun 04:06:00 PM 42.9379 -85.0606 270° West  Level Estimated
Sun 04:07:00 PM 42.9379 -85.0606 270° West  Level Estimated
Sun 04:08:00 PM 42.9379 -85.0606 270° West  Level Estimated
Sun 04:09:00 PM 42.9379 -85.0606 270° West  Level Estimated
Sun 04:10:00 PM 42.9379 -85.0606 270° West  Level Estimated
Sun 04:11:00 PM 42.9379 -85.0606 270° West  Level Estimated
Sun 04:12:00 PM 42.9379 -85.0606 270° West  Level Estimated

Login

Don't have an account? Register now (free) for customized features, flight alerts, and more!